ADDS METAR Data INFO
IDs: Format: Raw Decoded Include TAF

Data at: 0256 UTC 21 Oct 2017

KPYM 210252Z AUTO 09004KT 10SM CLR 11/03 A3014 RMK AO2 SLP204 T01110033 53022
KPYM 210152Z AUTO 29007KT 10SM CLR 14/03 A3010 RMK AO2 SLP193 T01390033
KPYM 210052Z AUTO 00000KT 10SM CLR 14/03 A3009 RMK AO2 SLP188 T01440028
KPYM 202352Z AUTO 29005KT 10SM CLR 16/03 A3007 RMK AO2 SLP182 T01610028 10211 20139 53019
KPYM 202252Z AUTO 28004KT 10SM CLR 16/03 A3006 RMK AO2 SLP177 T01610033
KPYM 202152Z AUTO 29004KT 10SM CLR 18/03 A3003 RMK AO2 SLP168 T01830033
KPYM 202052Z AUTO 29007KT 10SM CLR 21/04 A3002 RMK AO2 SLP164 T02060039 53004
KPYM 201952Z AUTO 30009KT 10SM CLR 21/03 A3000 RMK AO2 SLP159 T02110033
KPYM 201852Z AUTO 31009KT 10SM CLR 21/04 A3000 RMK AO2 SLP158 T02110044
KPYM 201752Z AUTO 29007KT 10SM CLR 21/04 A3000 RMK AO2 SLP160 T02060039 10211 20139 58019
KPYM 201652Z AUTO 30008KT 10SM CLR 20/04 A3002 RMK AO2 SLP166 T02000039
KPYM 201552Z AUTO 31010KT 10SM CLR 19/05 A3004 RMK AO2 SLP173 T01940050
KPYM 201452Z AUTO 30012G18KT 10SM CLR 18/06 A3006 RMK AO2 SLP179 T01830061 50007
KPYM 201352Z AUTO 30012KT 10SM CLR 17/07 A3006 RMK AO2 SLP179 T01720072
KPYM 201252Z AUTO 29007KT 10SM CLR 15/08 A3005 RMK AO2 SLP176 T01500078
KPYM 201152Z AUTO 29008KT 10SM CLR 14/08 A3004 RMK AO2 SLP172 T01390078 10156 20128 53014
KPYM 201052Z AUTO 26008KT 10SM CLR 14/07 A3001 RMK AO2 SLP162 T01390072
KPYM 200952Z AUTO 27007KT 10SM CLR 14/08 A3001 RMK AO2 SLP162 T01440078
KPYM 200852Z AUTO 26009KT 10SM CLR 15/09 A3000 RMK AO2 SLP157 T01500089 55005
KPYM 200752Z AUTO 25008KT 10SM CLR 14/11 A3000 RMK AO2 SLP157 T01440106
KPYM 200652Z AUTO 25007KT 10SM CLR 15/11 A3000 RMK AO2 SLP157 T01500111
KPYM 200552Z AUTO 22003KT 10SM CLR 14/12 A3001 RMK AO2 SLP162 T01440117 10156 20144 58007
KPYM 200452Z AUTO 20006KT 10SM CLR 14/12 A3002 RMK AO2 SLP166 T01440117 402220078
KPYM 200352Z AUTO 22007KT 10SM CLR 15/12 A3003 RMK AO2 SLP168 T01500122
KPYM 200252Z AUTO 22010KT 10SM CLR 15/12 A3003 RMK AO2 SLP170 T01500117 56001
KPYM 200152Z AUTO 22011KT 10SM CLR 15/12 A3004 RMK AO2 SLP171 T01500122
KPYM 200052Z AUTO 21011KT 10SM CLR 16/12 A3003 RMK AO2 SLP169 T01560117
KPYM 192352Z AUTO 20010KT 10SM CLR 16/12 A3004 RMK AO2 SLP171 T01560117 10217 20156 56011
KPYM 192252Z AUTO 21013G21KT 10SM CLR 16/12 A3005 RMK AO2 SLP176 T01610117
KPYM 192152Z AUTO 21011G19KT 10SM CLR 17/11 A3006 RMK AO2 SLP178 T01670111
KPYM 192052Z AUTO 21012G22KT 10SM CLR 19/09 A3007 RMK AO2 SLP183 T01890094 56021
KPYM 191952Z AUTO 22016G24KT 10SM CLR 20/08 A3009 RMK AO2 PK WND 22026/1927 SLP188 T02000083
KPYM 191852Z AUTO 21016G22KT 10SM CLR 21/08 A3011 RMK AO2 SLP196 T02110083
KPYM 191752Z AUTO 23016G21KT 10SM CLR 22/09 A3013 RMK AO2 SLP204 T02170094 10222 20128 58029
KPYM 191652Z AUTO 23013G23KT 10SM CLR 22/09 A3016 RMK AO2 SLP214 T02170089
KPYM 191552Z AUTO 22014G23KT 10SM CLR 21/10 A3020 RMK AO2 PK WND 21026/1536 SLP224 T02060100